sensor_id;sensor_type;location;lat;lon;timestamp;pressure;altitude;pressure_sealevel;temperature;humidity
58761;BME280;44529;47.464;19.014;2023-04-10T00:02:47;100978.59;;;3.91;94.50
58761;BME280;44529;47.464;19.014;2023-04-10T00:05:50;100980.78;;;3.94;94.32
58761;BME280;44529;47.464;19.014;2023-04-10T00:08:55;100982.06;;;3.91;94.03
58761;BME280;44529;47.464;19.014;2023-04-10T00:11:58;100973.97;;;3.86;94.30
58761;BME280;44529;47.464;19.014;2023-04-10T00:15:00;100975.28;;;3.84;94.92
58761;BME280;44529;47.464;19.014;2023-04-10T00:18:03;100975.84;;;3.86;94.82
58761;BME280;44529;47.464;19.014;2023-04-10T00:21:05;100971.38;;;3.91;94.20
58761;BME280;44529;47.464;19.014;2023-04-10T00:24:08;100970.88;;;3.94;94.32
58761;BME280;44529;47.464;19.014;2023-04-10T00:27:10;100962.78;;;3.89;94.43
58761;BME280;44529;47.464;19.014;2023-04-10T00:30:13;100968.06;;;3.84;94.94
58761;BME280;44529;47.464;19.014;2023-04-10T00:33:15;100954.69;;;3.84;94.76
58761;BME280;44529;47.464;19.014;2023-04-10T00:36:18;100969.13;;;3.83;94.82
58761;BME280;44529;47.464;19.014;2023-04-10T00:39:20;100965.41;;;3.84;95.31
58761;BME280;44529;47.464;19.014;2023-04-10T00:42:22;100961.84;;;3.78;95.16
58761;BME280;44529;47.464;19.014;2023-04-10T00:45:25;100961.03;;;3.78;94.85
58761;BME280;44529;47.464;19.014;2023-04-10T00:48:28;100957.31;;;3.79;95.07
58761;BME280;44529;47.464;19.014;2023-04-10T00:51:30;100949.59;;;3.83;94.87
58761;BME280;44529;47.464;19.014;2023-04-10T00:54:34;100949.28;;;3.79;95.15
58761;BME280;44529;47.464;19.014;2023-04-10T00:57:37;100945.78;;;3.78;94.95
58761;BME280;44529;47.464;19.014;2023-04-10T01:00:40;100939.16;;;3.81;95.07
58761;BME280;44529;47.464;19.014;2023-04-10T01:03:43;100942.03;;;3.74;95.40
58761;BME280;44529;47.464;19.014;2023-04-10T01:10:35;100947.03;;;3.71;96.27
58761;BME280;44529;47.464;19.014;2023-04-10T01:13:47;100941.16;;;3.69;95.41
58761;BME280;44529;47.464;19.014;2023-04-10T01:17:49;100941.75;;;3.76;95.27
58761;BME280;44529;47.464;19.014;2023-04-10T01:20:28;100941.16;;;3.69;95.37
58761;BME280;44529;47.464;19.014;2023-04-10T01:30:16;100940.06;;;3.48;96.16
58761;BME280;44529;47.464;19.014;2023-04-10T01:33:21;100937.25;;;3.60;95.03
58761;BME280;44529;47.464;19.014;2023-04-10T01:36:30;100936.97;;;3.56;94.57
58761;BME280;44529;47.464;19.014;2023-04-10T01:39:38;100933.84;;;3.42;95.20
58761;BME280;44529;47.464;19.014;2023-04-10T01:42:47;100939.75;;;3.44;95.22
58761;BME280;44529;47.464;19.014;2023-04-10T01:45:52;100930.84;;;3.39;96.41
58761;BME280;44529;47.464;19.014;2023-04-10T01:48:55;100931.91;;;3.38;96.19
58761;BME280;44529;47.464;19.014;2023-04-10T01:52:00;100933.44;;;3.34;96.84
58761;BME280;44529;47.464;19.014;2023-04-10T01:55:04;100938.97;;;3.27;97.50
58761;BME280;44529;47.464;19.014;2023-04-10T01:58:09;100937.81;;;3.40;96.58
58761;BME280;44529;47.464;19.014;2023-04-10T02:01:19;100932.78;;;3.43;95.96
58761;BME280;44529;47.464;19.014;2023-04-10T02:04:31;100942.34;;;3.39;96.42
58761;BME280;44529;47.464;19.014;2023-04-10T02:07:45;100935.53;;;3.48;95.86
58761;BME280;44529;47.464;19.014;2023-04-10T02:11:12;100937.97;;;3.50;95.26
58761;BME280;44529;47.464;19.014;2023-04-10T02:14:19;100933.84;;;3.42;95.56
58761;BME280;44529;47.464;19.014;2023-04-10T02:17:26;100941.28;;;3.40;95.23
58761;BME280;44529;47.464;19.014;2023-04-10T02:20:30;100934.06;;;3.41;95.57
58761;BME280;44529;47.464;19.014;2023-04-10T02:23:34;100935.94;;;3.40;95.48
58761;BME280;44529;47.464;19.014;2023-04-10T02:27:03;100937.72;;;3.35;96.41
58761;BME280;44529;47.464;19.014;2023-04-10T02:30:05;100937.00;;;3.39;96.23
58761;BME280;44529;47.464;19.014;2023-04-10T02:33:08;100935.13;;;3.40;95.91
58761;BME280;44529;47.464;19.014;2023-04-10T02:36:11;100935.37;;;3.38;95.76
58761;BME280;44529;47.464;19.014;2023-04-10T02:39:14;100924.94;;;3.37;96.40
58761;BME280;44529;47.464;19.014;2023-04-10T02:42:19;100922.28;;;3.37;97.15
58761;BME280;44529;47.464;19.014;2023-04-10T02:45:22;100922.09;;;3.43;96.38
58761;BME280;44529;47.464;19.014;2023-04-10T02:48:25;100918.84;;;3.41;96.50
58761;BME280;44529;47.464;19.014;2023-04-10T02:51:28;100920.53;;;3.47;95.79
58761;BME280;44529;47.464;19.014;2023-04-10T02:54:30;100912.94;;;3.39;96.27
58761;BME280;44529;47.464;19.014;2023-04-10T02:57:33;100915.00;;;3.32;96.64
58761;BME280;44529;47.464;19.014;2023-04-10T03:00:35;100910.16;;;3.29;97.22
58761;BME280;44529;47.464;19.014;2023-04-10T03:03:40;100911.34;;;3.21;97.08
58761;BME280;44529;47.464;19.014;2023-04-10T03:06:43;100907.66;;;3.22;97.10
58761;BME280;44529;47.464;19.014;2023-04-10T03:09:45;100905.47;;;3.19;97.44
58761;BME280;44529;47.464;19.014;2023-04-10T03:12:47;100900.66;;;3.21;96.86
58761;BME280;44529;47.464;19.014;2023-04-10T03:15:50;100904.81;;;3.12;97.33
58761;BME280;44529;47.464;19.014;2023-04-10T03:18:52;100905.16;;;3.16;96.47
58761;BME280;44529;47.464;19.014;2023-04-10T03:21:55;100901.09;;;3.13;96.56
58761;BME280;44529;47.464;19.014;2023-04-10T03:24:58;100901.44;;;3.17;96.52
58761;BME280;44529;47.464;19.014;2023-04-10T03:28:00;100906.94;;;3.10;96.48
58761;BME280;44529;47.464;19.014;2023-04-10T03:31:04;100906.22;;;2.98;97.83
58761;BME280;44529;47.464;19.014;2023-04-10T03:34:07;100908.47;;;2.89;98.54
58761;BME280;44529;47.464;19.014;2023-04-10T03:37:09;100908.00;;;2.92;98.64
58761;BME280;44529;47.464;19.014;2023-04-10T03:40:12;100914.06;;;2.88;98.92
58761;BME280;44529;47.464;19.014;2023-04-10T03:43:14;100912.84;;;2.95;98.33
58761;BME280;44529;47.464;19.014;2023-04-10T03:46:17;100911.41;;;3.05;97.91
58761;BME280;44529;47.464;19.014;2023-04-10T03:49:19;100916.56;;;3.11;97.32
58761;BME280;44529;47.464;19.014;2023-04-10T03:52:22;100913.09;;;3.11;97.94
58761;BME280;44529;47.464;19.014;2023-04-10T03:55:25;100913.19;;;2.99;98.40
58761;BME280;44529;47.464;19.014;2023-04-10T03:58:28;100920.53;;;3.09;98.21
58761;BME280;44529;47.464;19.014;2023-04-10T04:01:30;100924.87;;;3.15;97.88
58761;BME280;44529;47.464;19.014;2023-04-10T04:04:35;100926.84;;;3.19;97.30
58761;BME280;44529;47.464;19.014;2023-04-10T04:07:39;100921.81;;;3.23;97.54
58761;BME280;44529;47.464;19.014;2023-04-10T04:10:42;100924.09;;;3.14;97.90
58761;BME280;44529;47.464;19.014;2023-04-10T04:13:45;100923.59;;;3.17;97.90
58761;BME280;44529;47.464;19.014;2023-04-10T04:16:48;100930.75;;;3.12;97.93
58761;BME280;44529;47.464;19.014;2023-04-10T04:19:55;100931.94;;;3.21;97.13
58761;BME280;44529;47.464;19.014;2023-04-10T04:22:58;100929.03;;;3.06;98.63
58761;BME280;44529;47.464;19.014;2023-04-10T04:26:04;100938.37;;;3.03;98.92
58761;BME280;44529;47.464;19.014;2023-04-10T04:29:08;100933.31;;;3.07;98.66
58761;BME280;44529;47.464;19.014;2023-04-10T04:32:10;100939.19;;;3.04;98.32
58761;BME280;44529;47.464;19.014;2023-04-10T04:35:13;100935.44;;;3.05;98.39
58761;BME280;44529;47.464;19.014;2023-04-10T04:38:15;100935.34;;;2.99;99.01
58761;BME280;44529;47.464;19.014;2023-04-10T04:41:18;100938.84;;;3.00;98.79
58761;BME280;44529;47.464;19.014;2023-04-10T04:44:26;100935.91;;;3.02;98.93
58761;BME280;44529;47.464;19.014;2023-04-10T04:47:31;100941.34;;;3.07;98.56
58761;BME280;44529;47.464;19.014;2023-04-10T04:50:39;100940.19;;;3.03;98.25
58761;BME280;44529;47.464;19.014;2023-04-10T04:53:45;100943.38;;;2.99;98.68
58761;BME280;44529;47.464;19.014;2023-04-10T04:56:47;100950.59;;;2.99;98.79
58761;BME280;44529;47.464;19.014;2023-04-10T04:59:50;100955.37;;;2.97;98.64
58761;BME280;44529;47.464;19.014;2023-04-10T05:02:52;100952.19;;;3.00;98.67
58761;BME280;44529;47.464;19.014;2023-04-10T05:05:55;100967.41;;;2.99;98.51
58761;BME280;44529;47.464;19.014;2023-04-10T05:08:58;100963.38;;;2.97;98.97
58761;BME280;44529;47.464;19.014;2023-04-10T05:12:01;100970.59;;;2.96;98.20
58761;BME280;44529;47.464;19.014;2023-04-10T05:15:08;100957.44;;;2.95;99.04
58761;BME280;44529;47.464;19.014;2023-04-10T05:18:10;100967.59;;;2.93;99.05
58761;BME280;44529;47.464;19.014;2023-04-10T05:21:15;100968.22;;;3.00;99.07
58761;BME280;44529;47.464;19.014;2023-04-10T05:24:18;100960.75;;;3.02;98.57
58761;BME280;44529;47.464;19.014;2023-04-10T05:27:21;100967.50;;;3.05;99.10
58761;BME280;44529;47.464;19.014;2023-04-10T05:30:26;100968.63;;;3.09;98.97
58761;BME280;44529;47.464;19.014;2023-04-10T05:33:28;100967.62;;;3.15;98.96
58761;BME280;44529;47.464;19.014;2023-04-10T05:36:35;100972.00;;;3.21;98.71
58761;BME280;44529;47.464;19.014;2023-04-10T05:39:38;100965.69;;;3.27;98.81
58761;BME280;44529;47.464;19.014;2023-04-10T05:42:41;100973.31;;;3.35;98.64
58761;BME280;44529;47.464;19.014;2023-04-10T05:45:43;100975.06;;;3.46;98.64
58761;BME280;44529;47.464;19.014;2023-04-10T05:48:48;100971.97;;;3.55;98.42
58761;BME280;44529;47.464;19.014;2023-04-10T05:51:50;100975.84;;;3.64;98.23
58761;BME280;44529;47.464;19.014;2023-04-10T05:54:56;100972.25;;;3.75;97.63
58761;BME280;44529;47.464;19.014;2023-04-10T05:57:58;100971.25;;;3.81;98.05
58761;BME280;44529;47.464;19.014;2023-04-10T06:01:03;100973.22;;;3.91;97.84
58761;BME280;44529;47.464;19.014;2023-04-10T06:04:07;100969.56;;;3.97;97.74
58761;BME280;44529;47.464;19.014;2023-04-10T06:07:10;100972.31;;;4.02;97.31
58761;BME280;44529;47.464;19.014;2023-04-10T06:10:12;100970.97;;;4.04;98.19
58761;BME280;44529;47.464;19.014;2023-04-10T06:13:14;100976.53;;;4.20;97.63
58761;BME280;44529;47.464;19.014;2023-04-10T06:16:17;100975.81;;;4.29;97.77
58761;BME280;44529;47.464;19.014;2023-04-10T06:19:20;100977.56;;;4.41;97.24
58761;BME280;44529;47.464;19.014;2023-04-10T06:22:22;100977.91;;;4.49;97.42
58761;BME280;44529;47.464;19.014;2023-04-10T06:25:25;100974.78;;;4.57;96.97
58761;BME280;44529;47.464;19.014;2023-04-10T06:28:28;100976.25;;;4.75;96.54
58761;BME280;44529;47.464;19.014;2023-04-10T06:31:33;100969.94;;;4.86;96.04
58761;BME280;44529;47.464;19.014;2023-04-10T06:34:36;100975.63;;;4.95;95.02
58761;BME280;44529;47.464;19.014;2023-04-10T06:37:39;100975.72;;;5.05;95.86
58761;BME280;44529;47.464;19.014;2023-04-10T06:40:42;100973.94;;;5.16;94.90
58761;BME280;44529;47.464;19.014;2023-04-10T06:43:44;100972.91;;;5.27;94.20
58761;BME280;44529;47.464;19.014;2023-04-10T06:46:47;100980.50;;;5.40;93.28
58761;BME280;44529;47.464;19.014;2023-04-10T06:49:49;100975.22;;;5.51;93.31
58761;BME280;44529;47.464;19.014;2023-04-10T06:52:52;100972.34;;;5.62;92.46
58761;BME280;44529;47.464;19.014;2023-04-10T06:55:57;100977.50;;;5.74;92.91
58761;BME280;44529;47.464;19.014;2023-04-10T06:59:03;100966.28;;;5.87;92.33
58761;BME280;44529;47.464;19.014;2023-04-10T07:02:06;100967.44;;;6.02;91.44
58761;BME280;44529;47.464;19.014;2023-04-10T07:05:09;100965.59;;;6.12;91.17
58761;BME280;44529;47.464;19.014;2023-04-10T07:08:11;100964.03;;;6.27;90.07
58761;BME280;44529;47.464;19.014;2023-04-10T07:11:13;100970.78;;;6.39;88.86
58761;BME280;44529;47.464;19.014;2023-04-10T07:14:16;100963.00;;;6.63;87.76
58761;BME280;44529;47.464;19.014;2023-04-10T07:17:18;100963.56;;;6.81;86.42
58761;BME280;44529;47.464;19.014;2023-04-10T07:20:21;100963.28;;;7.18;80.08
58761;BME280;44529;47.464;19.014;2023-04-10T07:23:23;100960.78;;;7.47;79.54
58761;BME280;44529;47.464;19.014;2023-04-10T07:26:25;100957.16;;;7.92;72.81
58761;BME280;44529;47.464;19.014;2023-04-10T07:29:29;100957.88;;;8.13;73.02
58761;BME280;44529;47.464;19.014;2023-04-10T07:32:31;100949.88;;;8.47;70.16
58761;BME280;44529;47.464;19.014;2023-04-10T07:35:36;100952.72;;;8.66;69.82
58761;BME280;44529;47.464;19.014;2023-04-10T07:38:38;100957.78;;;9.07;67.23
58761;BME280;44529;47.464;19.014;2023-04-10T07:41:41;100948.06;;;9.35;67.55
58761;BME280;44529;47.464;19.014;2023-04-10T07:44:43;100946.56;;;9.95;64.44
58761;BME280;44529;47.464;19.014;2023-04-10T07:47:46;100946.66;;;10.66;60.71
58761;BME280;44529;47.464;19.014;2023-04-10T07:50:48;100944.25;;;11.43;55.81
58761;BME280;44529;47.464;19.014;2023-04-10T07:53:51;100940.50;;;12.22;54.05
58761;BME280;44529;47.464;19.014;2023-04-10T07:56:53;100938.41;;;12.77;53.74
58761;BME280;44529;47.464;19.014;2023-04-10T07:59:56;100935.44;;;13.41;51.80
58761;BME280;44529;47.464;19.014;2023-04-10T08:02:58;100931.25;;;13.83;50.99
58761;BME280;44529;47.464;19.014;2023-04-10T08:06:01;100931.00;;;14.28;50.88
58761;BME280;44529;47.464;19.014;2023-04-10T08:09:03;100926.69;;;14.79;46.48
58761;BME280;44529;47.464;19.014;2023-04-10T08:12:06;100930.97;;;14.97;47.11
58761;BME280;44529;47.464;19.014;2023-04-10T08:15:08;100939.50;;;15.42;45.74
58761;BME280;44529;47.464;19.014;2023-04-10T08:18:11;100926.00;;;15.84;43.70
58761;BME280;44529;47.464;19.014;2023-04-10T08:21:13;100928.63;;;16.22;44.00
58761;BME280;44529;47.464;19.014;2023-04-10T08:24:15;100917.88;;;16.59;42.48
58761;BME280;44529;47.464;19.014;2023-04-10T08:27:20;100930.66;;;16.88;40.93
58761;BME280;44529;47.464;19.014;2023-04-10T08:30:23;100930.72;;;17.25;39.59
58761;BME280;44529;47.464;19.014;2023-04-10T08:33:25;100925.03;;;17.30;37.59
58761;BME280;44529;47.464;19.014;2023-04-10T08:36:28;100924.63;;;17.65;37.21
58761;BME280;44529;47.464;19.014;2023-04-10T08:39:30;100920.50;;;17.71;34.94
58761;BME280;44529;47.464;19.014;2023-04-10T08:42:32;100916.84;;;18.03;35.49
58761;BME280;44529;47.464;19.014;2023-04-10T08:45:39;100914.56;;;18.46;34.87
58761;BME280;44529;47.464;19.014;2023-04-10T08:48:47;100915.09;;;18.51;34.64
58761;BME280;44529;47.464;19.014;2023-04-10T08:51:55;100908.47;;;18.52;32.52
58761;BME280;44529;47.464;19.014;2023-04-10T08:55:01;100905.31;;;18.78;33.57
58761;BME280;44529;47.464;19.014;2023-04-10T08:58:07;100906.94;;;19.11;32.51
58761;BME280;44529;47.464;19.014;2023-04-10T09:01:09;100913.31;;;19.31;32.44
58761;BME280;44529;47.464;19.014;2023-04-10T09:04:14;100909.53;;;19.19;32.38
58761;BME280;44529;47.464;19.014;2023-04-10T09:07:20;100903.94;;;19.47;31.47
58761;BME280;44529;47.464;19.014;2023-04-10T09:10:24;100906.41;;;19.68;30.80
58761;BME280;44529;47.464;19.014;2023-04-10T09:16:39;100898.91;;;19.65;31.56
58761;BME280;44529;47.464;19.014;2023-04-10T09:19:43;100896.03;;;19.78;31.89
58761;BME280;44529;47.464;19.014;2023-04-10T09:22:45;100885.69;;;19.55;32.84
58761;BME280;44529;47.464;19.014;2023-04-10T09:25:47;100889.19;;;19.20;32.50
58761;BME280;44529;47.464;19.014;2023-04-10T09:29:05;100888.81;;;19.22;32.98
58761;BME280;44529;47.464;19.014;2023-04-10T09:32:08;100886.56;;;18.80;33.95
58761;BME280;44529;47.464;19.014;2023-04-10T09:35:14;100878.69;;;18.79;34.45
58761;BME280;44529;47.464;19.014;2023-04-10T09:38:18;100884.00;;;18.72;33.19
58761;BME280;44529;47.464;19.014;2023-04-10T09:41:21;100882.16;;;18.76;34.56
58761;BME280;44529;47.464;19.014;2023-04-10T09:44:36;100878.81;;;18.98;34.80
58761;BME280;44529;47.464;19.014;2023-04-10T09:47:39;100869.38;;;18.67;35.48
58761;BME280;44529;47.464;19.014;2023-04-10T09:50:41;100882.91;;;18.48;35.77
58761;BME280;44529;47.464;19.014;2023-04-10T09:53:48;100878.91;;;18.30;35.11
58761;BME280;44529;47.464;19.014;2023-04-10T09:56:51;100861.63;;;18.13;34.10
58761;BME280;44529;47.464;19.014;2023-04-10T09:59:55;100867.19;;;17.65;34.54
58761;BME280;44529;47.464;19.014;2023-04-10T10:02:59;100859.00;;;17.40;35.50
58761;BME280;44529;47.464;19.014;2023-04-10T10:06:04;100852.94;;;17.10;35.33
58761;BME280;44529;47.464;19.014;2023-04-10T10:09:07;100860.22;;;16.94;37.20
58761;BME280;44529;47.464;19.014;2023-04-10T10:12:11;100854.41;;;16.95;34.99
58761;BME280;44529;47.464;19.014;2023-04-10T10:15:37;100858.66;;;17.29;36.41
58761;BME280;44529;47.464;19.014;2023-04-10T10:19:00;100854.09;;;17.21;36.45
58761;BME280;44529;47.464;19.014;2023-04-10T10:22:06;100850.19;;;16.98;35.61
58761;BME280;44529;47.464;19.014;2023-04-10T10:25:11;100843.69;;;16.78;36.56
58761;BME280;44529;47.464;19.014;2023-04-10T10:28:15;100841.69;;;16.66;36.44
58761;BME280;44529;47.464;19.014;2023-04-10T10:31:20;100845.47;;;16.41;37.09
58761;BME280;44529;47.464;19.014;2023-04-10T10:34:23;100836.06;;;16.17;37.26
58761;BME280;44529;47.464;19.014;2023-04-10T10:37:28;100832.00;;;16.03;37.43
58761;BME280;44529;47.464;19.014;2023-04-10T10:40:32;100834.22;;;15.88;37.65
58761;BME280;44529;47.464;19.014;2023-04-10T10:44:00;100830.00;;;15.70;39.46
58761;BME280;44529;47.464;19.014;2023-04-10T10:47:17;100834.31;;;15.71;38.92
58761;BME280;44529;47.464;19.014;2023-04-10T10:50:21;100829.87;;;15.58;40.23
58761;BME280;44529;47.464;19.014;2023-04-10T10:53:41;100837.06;;;15.41;38.82
58761;BME280;44529;47.464;19.014;2023-04-10T10:56:43;100835.19;;;15.33;40.59
58761;BME280;44529;47.464;19.014;2023-04-10T11:06:10;100823.19;;;14.87;41.11
58761;BME280;44529;47.464;19.014;2023-04-10T11:09:49;100832.81;;;14.85;41.92
58761;BME280;44529;47.464;19.014;2023-04-10T11:13:14;100833.78;;;14.80;43.37
58761;BME280;44529;47.464;19.014;2023-04-10T11:16:19;100832.47;;;14.86;43.58
58761;BME280;44529;47.464;19.014;2023-04-10T11:19:22;100834.47;;;14.60;45.28
58761;BME280;44529;47.464;19.014;2023-04-10T11:22:27;100824.25;;;14.57;44.96
58761;BME280;44529;47.464;19.014;2023-04-10T11:25:52;100828.25;;;14.59;44.95
58761;BME280;44529;47.464;19.014;2023-04-10T11:28:55;100828.41;;;14.63;44.57
58761;BME280;44529;47.464;19.014;2023-04-10T11:31:59;100820.72;;;14.65;45.43
58761;BME280;44529;47.464;19.014;2023-04-10T11:35:03;100817.66;;;14.67;44.73
58761;BME280;44529;47.464;19.014;2023-04-10T11:38:16;100806.63;;;14.63;44.89
58761;BME280;44529;47.464;19.014;2023-04-10T11:41:19;100812.06;;;14.63;46.61
58761;BME280;44529;47.464;19.014;2023-04-10T11:47:27;100819.44;;;14.62;43.68
58761;BME280;44529;47.464;19.014;2023-04-10T11:50:29;100809.56;;;14.49;43.98
58761;BME280;44529;47.464;19.014;2023-04-10T11:53:38;100822.97;;;14.63;44.82
58761;BME280;44529;47.464;19.014;2023-04-10T11:56:43;100821.66;;;14.69;44.50
58761;BME280;44529;47.464;19.014;2023-04-10T11:59:49;100819.13;;;14.64;44.19
58761;BME280;44529;47.464;19.014;2023-04-10T12:02:52;100818.19;;;14.51;45.41
58761;BME280;44529;47.464;19.014;2023-04-10T12:05:55;100814.34;;;14.44;44.76
58761;BME280;44529;47.464;19.014;2023-04-10T12:08:57;100810.19;;;14.46;45.26
58761;BME280;44529;47.464;19.014;2023-04-10T12:15:02;100809.38;;;14.37;46.09
58761;BME280;44529;47.464;19.014;2023-04-10T12:18:05;100810.81;;;14.34;47.86
58761;BME280;44529;47.464;19.014;2023-04-10T12:21:07;100810.00;;;14.34;49.10
58761;BME280;44529;47.464;19.014;2023-04-10T12:24:11;100794.34;;;14.31;49.59
58761;BME280;44529;47.464;19.014;2023-04-10T12:27:21;100808.91;;;14.26;49.45
58761;BME280;44529;47.464;19.014;2023-04-10T12:30:24;100801.38;;;14.32;46.33
58761;BME280;44529;47.464;19.014;2023-04-10T12:33:26;100793.37;;;14.27;47.74
58761;BME280;44529;47.464;19.014;2023-04-10T12:36:30;100787.97;;;14.09;46.73
58761;BME280;44529;47.464;19.014;2023-04-10T12:39:35;100781.41;;;14.02;48.64
58761;BME280;44529;47.464;19.014;2023-04-10T12:42:40;100774.22;;;13.97;47.62
58761;BME280;44529;47.464;19.014;2023-04-10T12:45:44;100780.63;;;13.93;48.07
58761;BME280;44529;47.464;19.014;2023-04-10T12:48:47;100763.66;;;13.96;48.37
58761;BME280;44529;47.464;19.014;2023-04-10T12:51:50;100754.53;;;14.09;47.29
58761;BME280;44529;47.464;19.014;2023-04-10T12:54:53;100756.63;;;13.95;47.57
58761;BME280;44529;47.464;19.014;2023-04-10T12:57:55;100747.81;;;14.06;49.24
58761;BME280;44529;47.464;19.014;2023-04-10T13:01:02;100749.56;;;14.02;49.41
58761;BME280;44529;47.464;19.014;2023-04-10T13:04:05;100739.44;;;14.29;49.32
58761;BME280;44529;47.464;19.014;2023-04-10T13:07:07;100728.44;;;14.72;48.28
58761;BME280;44529;47.464;19.014;2023-04-10T13:10:10;100725.84;;;15.14;46.77
58761;BME280;44529;47.464;19.014;2023-04-10T13:13:13;100719.06;;;15.20;46.07
58761;BME280;44529;47.464;19.014;2023-04-10T13:16:15;100713.19;;;14.80;46.18
58761;BME280;44529;47.464;19.014;2023-04-10T13:19:18;100713.44;;;14.66;47.58
58761;BME280;44529;47.464;19.014;2023-04-10T13:22:20;100706.16;;;14.79;47.41
58761;BME280;44529;47.464;19.014;2023-04-10T13:25:22;100713.78;;;14.94;47.59
58761;BME280;44529;47.464;19.014;2023-04-10T13:28:25;100705.78;;;14.89;45.49
58761;BME280;44529;47.464;19.014;2023-04-10T13:31:27;100689.38;;;14.68;46.27
58761;BME280;44529;47.464;19.014;2023-04-10T13:34:33;100689.66;;;15.05;46.14
58761;BME280;44529;47.464;19.014;2023-04-10T13:37:36;100685.91;;;15.18;45.51
58761;BME280;44529;47.464;19.014;2023-04-10T13:40:38;100680.00;;;15.16;45.41
58761;BME280;44529;47.464;19.014;2023-04-10T13:43:40;100675.59;;;15.03;47.01
58761;BME280;44529;47.464;19.014;2023-04-10T13:46:43;100663.16;;;14.93;47.27
58761;BME280;44529;47.464;19.014;2023-04-10T13:49:45;100673.25;;;14.93;46.26
58761;BME280;44529;47.464;19.014;2023-04-10T13:52:47;100669.62;;;14.80;47.32
58761;BME280;44529;47.464;19.014;2023-04-10T13:55:51;100662.16;;;14.68;47.00
58761;BME280;44529;47.464;19.014;2023-04-10T13:58:53;100664.25;;;14.71;47.70
58761;BME280;44529;47.464;19.014;2023-04-10T14:01:57;100648.66;;;14.80;47.56
58761;BME280;44529;47.464;19.014;2023-04-10T14:04:59;100651.19;;;14.85;46.89
58761;BME280;44529;47.464;19.014;2023-04-10T14:08:01;100643.53;;;15.08;45.60
58761;BME280;44529;47.464;19.014;2023-04-10T14:11:04;100642.72;;;15.29;44.67
58761;BME280;44529;47.464;19.014;2023-04-10T14:14:06;100632.09;;;15.15;44.79
58761;BME280;44529;47.464;19.014;2023-04-10T14:17:09;100629.44;;;15.27;46.07
58761;BME280;44529;47.464;19.014;2023-04-10T14:20:11;100621.44;;;15.22;43.81
58761;BME280;44529;47.464;19.014;2023-04-10T14:23:14;100626.87;;;15.43;44.36
58761;BME280;44529;47.464;19.014;2023-04-10T14:26:19;100617.56;;;15.65;43.81
58761;BME280;44529;47.464;19.014;2023-04-10T14:29:26;100608.94;;;15.75;43.00
58761;BME280;44529;47.464;19.014;2023-04-10T14:32:40;100594.16;;;15.64;43.54
58761;BME280;44529;47.464;19.014;2023-04-10T14:35:43;100596.91;;;15.76;44.21
58761;BME280;44529;47.464;19.014;2023-04-10T14:38:46;100590.00;;;15.79;44.52
58761;BME280;44529;47.464;19.014;2023-04-10T14:41:49;100593.03;;;15.65;43.34
58761;BME280;44529;47.464;19.014;2023-04-10T14:44:51;100582.87;;;15.53;44.73
58761;BME280;44529;47.464;19.014;2023-04-10T14:47:55;100579.91;;;15.58;42.72
58761;BME280;44529;47.464;19.014;2023-04-10T14:50:57;100588.56;;;15.60;43.88
58761;BME280;44529;47.464;19.014;2023-04-10T14:54:00;100583.44;;;15.59;44.09
58761;BME280;44529;47.464;19.014;2023-04-10T14:57:03;100572.72;;;15.41;44.76
58761;BME280;44529;47.464;19.014;2023-04-10T15:00:06;100571.19;;;15.32;43.84
58761;BME280;44529;47.464;19.014;2023-04-10T15:03:08;100567.06;;;15.26;42.87
58761;BME280;44529;47.464;19.014;2023-04-10T15:06:11;100566.81;;;15.18;43.78
58761;BME280;44529;47.464;19.014;2023-04-10T15:09:13;100562.41;;;15.14;43.93
58761;BME280;44529;47.464;19.014;2023-04-10T15:12:15;100569.56;;;15.18;43.71
58761;BME280;44529;47.464;19.014;2023-04-10T15:15:18;100550.56;;;15.43;42.40
58761;BME280;44529;47.464;19.014;2023-04-10T15:18:20;100552.16;;;15.65;43.14
58761;BME280;44529;47.464;19.014;2023-04-10T15:21:22;100539.19;;;15.74;42.34
58761;BME280;44529;47.464;19.014;2023-04-10T15:24:25;100534.41;;;15.71;41.77
58761;BME280;44529;47.464;19.014;2023-04-10T15:27:30;100544.41;;;15.67;41.89
58761;BME280;44529;47.464;19.014;2023-04-10T15:30:32;100532.41;;;15.80;42.24
58761;BME280;44529;47.464;19.014;2023-04-10T15:33:35;100528.31;;;15.98;41.76
58761;BME280;44529;47.464;19.014;2023-04-10T15:36:39;100530.94;;;16.07;41.04
58761;BME280;44529;47.464;19.014;2023-04-10T15:39:41;100519.91;;;16.04;41.26
58761;BME280;44529;47.464;19.014;2023-04-10T15:42:43;100518.78;;;16.17;42.04
58761;BME280;44529;47.464;19.014;2023-04-10T15:45:45;100518.06;;;16.20;41.25
58761;BME280;44529;47.464;19.014;2023-04-10T15:48:48;100512.50;;;16.16;41.35
58761;BME280;44529;47.464;19.014;2023-04-10T15:51:50;100508.66;;;16.17;41.12
58761;BME280;44529;47.464;19.014;2023-04-10T15:54:53;100513.75;;;16.19;40.66
58761;BME280;44529;47.464;19.014;2023-04-10T15:57:55;100507.72;;;16.13;41.35
58761;BME280;44529;47.464;19.014;2023-04-10T16:00:58;100500.12;;;16.19;40.98
58761;BME280;44529;47.464;19.014;2023-04-10T16:04:01;100510.34;;;16.10;41.53
58761;BME280;44529;47.464;19.014;2023-04-10T16:07:03;100507.72;;;16.13;42.25
58761;BME280;44529;47.464;19.014;2023-04-10T16:10:07;100504.09;;;16.09;41.68
58761;BME280;44529;47.464;19.014;2023-04-10T16:13:12;100488.06;;;16.08;42.29
58761;BME280;44529;47.464;19.014;2023-04-10T16:16:15;100491.16;;;16.06;41.30
58761;BME280;44529;47.464;19.014;2023-04-10T16:19:17;100498.97;;;15.95;42.03
58761;BME280;44529;47.464;19.014;2023-04-10T16:22:20;100491.72;;;16.00;41.34
58761;BME280;44529;47.464;19.014;2023-04-10T16:25:22;100486.84;;;16.05;41.33